Terminal Aerodrome Forecast
Issued by NWS Twin Cities, MN

Home | Current Version | Previous Version | Graphics & Text | Print | Product List | Glossary On
Versions: 1 2 3 4 5 6 7 8 9 10 11 12 13 14 15 16 17 18 19 20 21 22 23 24 25 26 27 28 29 30 31
000
FTUS43 KMPX 250723 AAA
TAFMSP
TAF AMD
KMSP 250723Z 2507/2612 03010KT 4SM -SN BR SCT008 BKN015 OVC025
     FM250830 03015KT P6SM BKN025 OVC070
     FM251700 03007KT P6SM SCT025
     FM252100 20004KT P6SM FEW025 SCT100=

USA.gov is the U.S. government's official web portal to all federal, state and local government web resources and services.